Time;durP1;ratioP1;P1;durP2;ratioP2;P2;SDS_P1;SDS_P2;PMS_P1;PMS_P2;Temp;Humidity;BMP_temperature;BMP_pressure;BME280_temperature;BME280_humidity;BME280_pressure;Samples;Min_cycle;Max_cycle;Signal;HPM_P1;HPM_P2
2022/05/19 00:02:00;;;;;;;0.00;0.00;;;14.30;72.60;;;;;;5103077;28;20040;-86
2022/05/19 00:04:27;;;;;;;0.00;0.00;;;14.30;71.80;;;;;;5107619;28;20016;-87
2022/05/19 00:06:52;;;;;;;0.00;0.00;;;14.30;72.10;;;;;;5105549;28;20087;-84
2022/05/19 00:09:19;;;;;;;0.00;0.00;;;14.30;73.10;;;;;;5112615;28;20023;-82
2022/05/19 00:11:46;;;;;;;0.00;0.00;;;14.30;73.30;;;;;;5106966;28;20083;-84
2022/05/19 00:14:12;;;;;;;0.00;0.00;;;14.30;73.70;;;;;;5107363;28;20027;-88
2022/05/19 00:16:38;;;;;;;0.00;0.00;;;14.30;74.00;;;;;;5105729;28;20046;-80
2022/05/19 00:19:05;;;;;;;0.00;0.00;;;14.30;73.90;;;;;;5099796;28;20129;-82
2022/05/19 00:21:31;;;;;;;0.00;0.00;;;14.20;73.80;;;;;;5098214;28;20059;-87
2022/05/19 00:23:57;;;;;;;0.00;0.00;;;14.20;74.40;;;;;;5108997;28;20103;-88
2022/05/19 00:26:22;;;;;;;0.00;0.00;;;14.20;72.70;;;;;;5111007;28;20027;-84
2022/05/19 00:28:48;;;;;;;0.00;0.00;;;14.20;73.00;;;;;;5103107;28;20367;-79
2022/05/19 00:31:15;;;;;;;0.00;0.00;;;14.20;73.60;;;;;;5105275;28;20076;-85
2022/05/19 00:33:41;;;;;;;0.00;0.00;;;14.20;73.10;;;;;;5115056;28;20016;-84
2022/05/19 00:36:15;;;;;;;0.00;0.00;;;14.10;73.90;;;;;;5106065;28;20390;-77
2022/05/19 00:38:41;;;;;;;0.00;0.00;;;14.10;74.70;;;;;;5116703;27;20019;-81
2022/05/19 00:41:08;;;;;;;0.00;0.00;;;14.00;75.70;;;;;;5105903;28;20108;-77
2022/05/19 00:43:37;;;;;;;0.00;0.00;;;14.00;76.60;;;;;;5100678;28;20311;-85
2022/05/19 00:46:06;;;;;;;0.00;0.00;;;14.00;77.90;;;;;;5114823;27;20016;-81
2022/05/19 00:49:12;;;;;;;0.00;0.00;;;14.00;77.50;;;;;;5122522;27;20027;-84
2022/05/19 00:51:45;;;;;;;0.00;0.00;;;14.00;79.20;;;;;;5110310;28;20529;-76
2022/05/19 00:54:19;;;;;;;0.00;0.00;;;13.90;78.70;;;;;;5107076;28;20214;-84
2022/05/19 00:57:01;;;;;;;0.00;0.00;;;13.80;77.60;;;;;;5106759;28;20353;-82
2022/05/19 00:59:52;;;;;;;0.00;0.00;;;13.70;77.10;;;;;;5100137;28;20036;-81
2022/05/19 01:02:24;;;;;;;0.00;0.00;;;13.70;76.80;;;;;;5105117;28;20262;-78
2022/05/19 01:05:02;;;;;;;0.00;0.00;;;13.60;76.80;;;;;;5109939;28;20032;-84
2022/05/19 01:07:37;;;;;;;0.00;0.00;;;13.60;78.40;;;;;;5102873;28;20192;-77
2022/05/19 01:10:05;;;;;;;0.00;0.00;;;13.60;78.20;;;;;;5098406;28;20032;-84
2022/05/19 01:12:31;;;;;;;0.00;0.00;;;13.60;78.20;;;;;;5102345;28;20015;-83
2022/05/19 01:15:00;;;;;;;0.00;0.00;;;13.60;78.90;;;;;;5104130;28;20260;-77
2022/05/19 01:17:26;;;;;;;0.00;0.00;;;13.60;79.20;;;;;;5107127;28;20098;-84
2022/05/19 01:20:14;;;;;;;0.00;0.00;;;13.50;80.20;;;;;;5099530;28;20024;-81
2022/05/19 01:23:09;;;;;;;0.00;0.00;;;13.50;79.90;;;;;;5098703;28;20035;-76
2022/05/19 01:25:34;;;;;;;0.00;0.00;;;13.50;80.40;;;;;;5111073;28;20091;-85
2022/05/19 01:28:00;;;;;;;0.00;0.00;;;13.50;81.30;;;;;;5106070;28;20024;-90
2022/05/19 01:30:26;;;;;;;0.00;0.00;;;13.50;83.00;;;;;;5108831;28;20033;-90
2022/05/19 01:32:55;;;;;;;0.00;0.00;;;13.60;83.80;;;;;;5103255;28;20074;-80
2022/05/19 01:35:21;;;;;;;0.00;0.00;;;13.60;84.80;;;;;;5113766;28;20203;-87
2022/05/19 01:37:47;;;;;;;0.00;0.00;;;13.50;84.90;;;;;;5104356;28;20024;-78
2022/05/19 01:40:41;;;;;;;0.00;0.00;;;13.60;85.40;;;;;;5105922;28;20073;-80
2022/05/19 01:43:39;;;;;;;0.00;0.00;;;13.60;85.70;;;;;;5106169;28;20039;-78
2022/05/19 01:46:11;;;;;;;0.00;0.00;;;13.60;86.40;;;;;;5103831;28;20024;-85
2022/05/19 01:48:55;;;;;;;0.00;0.00;;;13.50;85.70;;;;;;5105107;28;20035;-75
2022/05/19 01:51:24;;;;;;;0.00;0.00;;;13.50;86.40;;;;;;5101055;28;20050;-83
2022/05/19 01:53:53;;;;;;;;;;;13.50;86.40;;;;;;5104647;28;20028;-87
2022/05/19 01:56:41;;;;;;;0.00;0.00;;;13.50;86.70;;;;;;5099983;28;19908;-84
2022/05/19 01:59:24;;;;;;;0.00;0.00;;;13.50;86.40;;;;;;5110668;28;20092;-80
2022/05/19 02:02:31;;;;;;;0.00;0.00;;;13.40;86.60;;;;;;5100937;28;20311;-87
2022/05/19 02:05:35;;;;;;;0.00;0.00;;;13.40;86.40;;;;;;5099014;28;20067;-78
2022/05/19 02:08:05;;;;;;;0.00;0.00;;;13.30;86.60;;;;;;5065363;28;20291;-88
2022/05/19 02:10:36;;;;;;;0.00;0.00;;;13.30;86.90;;;;;;5100820;28;20330;-88
2022/05/19 02:13:04;;;;;;;0.00;0.00;;;13.20;87.00;;;;;;5101289;28;20448;-88
2022/05/19 02:15:34;;;;;;;0.00;0.00;;;13.20;87.30;;;;;;5098398;28;20092;-87
2022/05/19 02:18:00;;;;;;;0.00;0.00;;;13.20;87.40;;;;;;5112238;28;20023;-84
2022/05/19 02:20:28;;;;;;;0.00;0.00;;;13.10;87.60;;;;;;5106259;28;20327;-84
2022/05/19 02:22:54;;;;;;;0.00;0.00;;;13.00;87.60;;;;;;5103739;28;20129;-80
2022/05/19 02:25:25;;;;;;;0.00;0.00;;;13.10;87.70;;;;;;5105973;28;20028;-84
2022/05/19 02:28:03;;;;;;;0.00;0.00;;;13.00;87.50;;;;;;5109244;28;20043;-86
2022/05/19 02:30:33;;;;;;;0.00;0.00;;;13.00;88.00;;;;;;5100578;28;20020;-81
2022/05/19 02:32:59;;;;;;;0.00;0.00;;;12.90;87.90;;;;;;5102466;28;20024;-83
2022/05/19 02:35:25;;;;;;;0.00;0.00;;;12.90;87.70;;;;;;5101122;28;20041;-83
2022/05/19 02:37:52;;;;;;;0.00;0.00;;;12.80;88.50;;;;;;5101717;28;20038;-86
2022/05/19 02:40:20;;;;;;;0.00;0.00;;;12.80;88.30;;;;;;5104877;28;20283;-79
2022/05/19 02:42:46;;;;;;;0.00;0.00;;;12.70;88.20;;;;;;5108989;28;20295;-82
2022/05/19 02:45:14;;;;;;;0.00;0.00;;;12.70;88.90;;;;;;5102279;28;20032;-86
2022/05/19 02:47:40;;;;;;;0.00;0.00;;;12.70;89.00;;;;;;5101453;28;20047;-78
2022/05/19 02:50:07;;;;;;;0.00;0.00;;;12.70;89.30;;;;;;5109392;28;20369;-88
2022/05/19 02:52:32;;;;;;;0.00;0.00;;;12.60;89.10;;;;;;5112345;28;20016;-87
2022/05/19 02:54:58;;;;;;;0.00;0.00;;;12.60;89.70;;;;;;5107187;28;20474;-77
2022/05/19 02:57:24;;;;;;;0.00;0.00;;;12.60;89.30;;;;;;5114744;28;20031;-88
2022/05/19 02:59:49;;;;;;;0.00;0.00;;;12.50;89.70;;;;;;5105063;28;20311;-84
2022/05/19 03:02:15;;;;;;;0.00;0.00;;;12.50;89.80;;;;;;5107114;28;20038;-86
2022/05/19 03:04:41;;;;;;;0.00;0.00;;;12.40;90.20;;;;;;5116286;28;20028;-76
2022/05/19 03:07:07;;;;;;;0.00;0.00;;;12.40;90.20;;;;;;5113264;28;20100;-77
2022/05/19 03:09:33;;;;;;;0.00;0.00;;;12.40;90.10;;;;;;5112921;28;20031;-83
2022/05/19 03:11:59;;;;;;;0.00;0.00;;;12.40;90.30;;;;;;5117360;28;20034;-78
2022/05/19 03:14:24;;;;;;;0.00;0.00;;;12.30;90.50;;;;;;5106121;28;20059;-85
2022/05/19 03:16:50;;;;;;;0.00;0.00;;;12.30;90.60;;;;;;5118573;28;20019;-79
2022/05/19 03:19:17;;;;;;;0.00;0.00;;;12.20;90.80;;;;;;5105897;28;20028;-86
2022/05/19 03:21:42;;;;;;;0.00;0.00;;;12.30;90.80;;;;;;5105081;28;20077;-79
2022/05/19 03:24:09;;;;;;;0.00;0.00;;;12.20;91.00;;;;;;5103253;28;20164;-81
2022/05/19 03:26:36;;;;;;;0.00;0.00;;;12.20;91.10;;;;;;5108314;28;20036;-87
2022/05/19 03:29:03;;;;;;;0.00;0.00;;;12.20;91.20;;;;;;5112915;28;20034;-86
2022/05/19 03:31:29;;;;;;;0.00;0.00;;;12.20;91.40;;;;;;5102732;28;20347;-85
2022/05/19 03:33:55;;;;;;;0.00;0.00;;;12.20;91.50;;;;;;5105063;28;20024;-88
2022/05/19 03:36:20;;;;;;;0.00;0.00;;;12.20;91.80;;;;;;5108350;28;20024;-88
2022/05/19 03:38:46;;;;;;;0.00;0.00;;;12.10;91.60;;;;;;5103778;28;20203;-87
2022/05/19 03:41:12;;;;;;;0.00;0.00;;;12.10;91.80;;;;;;5109355;28;20043;-78
2022/05/19 03:43:38;;;;;;;0.00;0.00;;;12.10;92.00;;;;;;5101224;28;20040;-77
2022/05/19 03:46:04;;;;;;;0.00;0.00;;;12.10;92.10;;;;;;5102885;28;20042;-80
2022/05/19 03:48:34;;;;;;;0.00;0.00;;;12.10;92.40;;;;;;5105975;28;20073;-85
2022/05/19 03:51:01;;;;;;;0.00;0.00;;;12.10;92.40;;;;;;5103602;28;20047;-85
2022/05/19 03:53:27;;;;;;;0.00;0.00;;;12.10;92.40;;;;;;5098899;28;20342;-78
2022/05/19 03:55:54;;;;;;;0.00;0.00;;;12.00;92.50;;;;;;5107700;28;20042;-83
2022/05/19 03:58:20;;;;;;;0.00;0.00;;;12.10;92.60;;;;;;5106637;28;20046;-86
2022/05/19 04:00:46;;;;;;;0.00;0.00;;;12.10;92.60;;;;;;5098830;28;20040;-81
2022/05/19 04:03:12;;;;;;;0.00;0.00;;;12.10;92.80;;;;;;5104548;28;20039;-85
2022/05/19 04:05:38;;;;;;;0.00;0.00;;;12.10;92.50;;;;;;5108517;28;20024;-79
2022/05/19 04:08:04;;;;;;;0.00;0.00;;;12.00;92.60;;;;;;5103403;28;20312;-86
2022/05/19 04:10:31;;;;;;;0.00;0.00;;;12.10;92.70;;;;;;5106062;28;20031;-84
2022/05/19 04:12:57;;;;;;;0.00;0.00;;;12.10;93.30;;;;;;5104639;28;20038;-78
2022/05/19 04:15:23;;;;;;;0.00;0.00;;;12.10;93.10;;;;;;5097926;28;20020;-84
2022/05/19 04:17:49;;;;;;;0.00;0.00;;;12.10;93.30;;;;;;5099215;28;20027;-84
2022/05/19 04:20:14;;;;;;;0.00;0.00;;;12.20;93.40;;;;;;5109276;28;20296;-82
2022/05/19 04:22:40;;;;;;;0.00;0.00;;;12.20;93.20;;;;;;5102589;28;20034;-75
2022/05/19 04:25:08;;;;;;;0.00;0.00;;;12.20;93.00;;;;;;5101824;28;20322;-84
2022/05/19 04:27:34;;;;;;;0.00;0.00;;;12.20;93.00;;;;;;5099396;28;20039;-84
2022/05/19 04:30:01;;;;;;;0.00;0.00;;;12.20;93.10;;;;;;5101246;28;20154;-84
2022/05/19 04:32:30;;;;;;;0.00;0.00;;;12.20;93.10;;;;;;5102653;28;20043;-80
2022/05/19 04:34:56;;;;;;;0.00;0.00;;;12.30;93.20;;;;;;5104194;28;20103;-84
2022/05/19 04:37:21;;;;;;;0.00;0.00;;;12.30;93.40;;;;;;5101376;28;20019;-86
2022/05/19 04:39:47;;;;;;;0.00;0.00;;;12.30;93.10;;;;;;5101463;28;20047;-77
2022/05/19 04:42:13;;;;;;;0.00;0.00;;;12.30;93.40;;;;;;5101960;28;20055;-84
2022/05/19 04:44:39;;;;;;;0.00;0.00;;;12.40;93.50;;;;;;5102038;28;20019;-78
2022/05/19 04:47:06;;;;;;;0.00;0.00;;;12.40;93.50;;;;;;5105196;28;20038;-85
2022/05/19 04:49:32;;;;;;;0.00;0.00;;;12.50;93.50;;;;;;5100098;28;20356;-83
2022/05/19 04:51:58;;;;;;;0.00;0.00;;;12.50;93.60;;;;;;5096293;28;20035;-78
2022/05/19 04:54:24;;;;;;;0.00;0.00;;;12.60;93.70;;;;;;5100242;28;20132;-82
2022/05/19 04:56:51;;;;;;;0.00;0.00;;;12.60;93.70;;;;;;5108019;28;20319;-88
2022/05/19 04:59:17;;;;;;;0.00;0.00;;;12.70;93.60;;;;;;5108781;28;20015;-89
2022/05/19 05:01:45;;;;;;;0.00;0.00;;;12.70;93.30;;;;;;5108817;28;20315;-79
2022/05/19 05:04:11;;;;;;;0.00;0.00;;;12.80;93.60;;;;;;5108335;28;20076;-86
2022/05/19 05:06:37;;;;;;;0.00;0.00;;;12.80;93.70;;;;;;5106320;28;20027;-77
2022/05/19 05:09:04;;;;;;;0.00;0.00;;;12.90;93.20;;;;;;5107967;28;20282;-84
2022/05/19 05:11:30;;;;;;;0.00;0.00;;;12.90;93.30;;;;;;5108578;28;20039;-84
2022/05/19 05:13:56;;;;;;;0.00;0.00;;;13.00;93.20;;;;;;5108701;28;20012;-84
2022/05/19 05:16:21;;;;;;;0.00;0.00;;;13.00;93.40;;;;;;5107491;28;20024;-83
2022/05/19 05:18:47;;;;;;;0.00;0.00;;;13.10;93.40;;;;;;5106894;28;20031;-79
2022/05/19 05:21:13;;;;;;;0.00;0.00;;;13.20;93.30;;;;;;5109020;28;20036;-79
2022/05/19 05:23:42;;;;;;;0.00;0.00;;;13.20;93.20;;;;;;5102725;28;20042;-84
2022/05/19 05:26:08;;;;;;;0.00;0.00;;;13.20;93.10;;;;;;5099939;28;20031;-76
2022/05/19 05:28:35;;;;;;;0.00;0.00;;;13.30;93.20;;;;;;5105798;28;20088;-80
2022/05/19 05:31:02;;;;;;;0.00;0.00;;;13.40;93.40;;;;;;5099710;28;20091;-79
2022/05/19 05:33:29;;;;;;;0.00;0.00;;;13.40;93.50;;;;;;5105175;28;20046;-80
2022/05/19 05:35:55;;;;;;;0.00;0.00;;;13.50;93.10;;;;;;5100656;28;20048;-87
2022/05/19 05:38:20;;;;;;;0.00;0.00;;;13.60;93.10;;;;;;5099827;28;20047;-83
2022/05/19 05:40:50;;;;;;;0.00;0.00;;;13.60;93.30;;;;;;5109760;28;20240;-82
2022/05/19 05:43:18;;;;;;;0.00;0.00;;;13.60;93.30;;;;;;5099879;28;20028;-86
2022/05/19 05:45:45;;;;;;;;;;;13.70;93.20;;;;;;5102494;28;20039;-79
2022/05/19 05:48:10;;;;;;;0.00;0.00;;;13.80;93.10;;;;;;5099239;28;20209;-75
2022/05/19 05:50:37;;;;;;;0.00;0.00;;;13.80;92.70;;;;;;5102632;28;20027;-81
2022/05/19 05:53:04;;;;;;;0.00;0.00;;;13.90;92.70;;;;;;5099724;28;20200;-82
2022/05/19 05:55:48;;;;;;;0.00;0.00;;;14.00;93.00;;;;;;5097603;28;20091;-78
2022/05/19 05:58:14;;;;;;;0.00;0.00;;;14.00;92.60;;;;;;5098663;28;20126;-85
2022/05/19 06:00:42;;;;;;;0.00;0.00;;;14.10;92.60;;;;;;5104959;28;20223;-83
2022/05/19 06:03:07;;;;;;;0.00;0.00;;;14.20;92.80;;;;;;5101989;28;20034;-78
2022/05/19 06:05:33;;;;;;;0.00;0.00;;;14.30;92.30;;;;;;5101403;28;20118;-83
2022/05/19 06:08:00;;;;;;;0.00;0.00;;;14.30;92.30;;;;;;5106358;28;20183;-85
2022/05/19 06:10:26;;;;;;;0.00;0.00;;;14.50;92.30;;;;;;5101588;28;20051;-84
2022/05/19 06:12:53;;;;;;;0.00;0.00;;;14.60;92.60;;;;;;5102272;28;20101;-84
2022/05/19 06:15:19;;;;;;;0.00;0.00;;;15.10;92.80;;;;;;5097505;28;20049;-83
2022/05/19 06:17:45;;;;;;;0.00;0.00;;;15.80;92.60;;;;;;5105935;28;20035;-76
2022/05/19 06:20:14;;;;;;;0.00;0.00;;;16.30;92.30;;;;;;5112472;28;20023;-83
2022/05/19 06:22:41;;;;;;;0.00;0.00;;;17.00;90.70;;;;;;5107092;28;20087;-82
2022/05/19 06:25:08;;;;;;;0.00;0.00;;;17.50;89.50;;;;;;5106416;28;20023;-75
2022/05/19 06:27:33;;;;;;;0.00;0.00;;;17.90;87.10;;;;;;5110820;28;20034;-79
2022/05/19 06:29:59;;;;;;;0.00;0.00;;;18.30;86.10;;;;;;5105602;28;20032;-83
2022/05/19 06:32:25;;;;;;;0.00;0.00;;;18.60;84.20;;;;;;5105095;28;20337;-80
2022/05/19 06:34:51;;;;;;;0.00;0.00;;;18.90;84.80;;;;;;5103571;28;20036;-84
2022/05/19 06:37:17;;;;;;;0.00;0.00;;;19.20;83.50;;;;;;5107364;28;20016;-77
2022/05/19 06:39:43;;;;;;;0.00;0.00;;;19.60;81.90;;;;;;5113744;28;20046;-76
2022/05/19 06:42:14;;;;;;;0.00;0.00;;;20.00;82.00;;;;;;5106647;28;20478;-84
2022/05/19 06:44:42;;;;;;;0.00;0.00;;;20.40;80.10;;;;;;5109329;28;20035;-82
2022/05/19 06:47:15;;;;;;;0.00;0.00;;;20.80;83.30;;;;;;5111867;28;20084;-75
2022/05/19 06:49:49;;;;;;;0.00;0.00;;;21.20;76.90;;;;;;5110477;28;20328;-82
2022/05/19 06:52:22;;;;;;;0.00;0.00;;;21.50;75.70;;;;;;5113592;28;20069;-84
2022/05/19 06:54:51;;;;;;;0.00;0.00;;;21.70;75.90;;;;;;5108053;28;20710;-78
2022/05/19 06:57:19;;;;;;;0.00;0.00;;;22.00;74.40;;;;;;5105057;28;20020;-77
2022/05/19 06:59:46;;;;;;;0.00;0.00;;;22.40;72.00;;;;;;5107350;28;20016;-78
2022/05/19 07:02:12;;;;;;;0.00;0.00;;;22.80;70.30;;;;;;5100027;28;20028;-83
2022/05/19 07:04:39;;;;;;;0.00;0.00;;;23.00;68.30;;;;;;5107714;28;20219;-81
2022/05/19 07:07:05;;;;;;;0.00;0.00;;;23.30;68.30;;;;;;5101711;28;20011;-84
2022/05/19 07:09:32;;;;;;;0.00;0.00;;;23.60;65.90;;;;;;5109410;28;20024;-82
2022/05/19 07:11:59;;;;;;;0.00;0.00;;;23.50;63.10;;;;;;5109572;28;20035;-77
2022/05/19 07:14:26;;;;;;;0.00;0.00;;;23.00;61.50;;;;;;5105405;28;20099;-82
2022/05/19 07:16:51;;;;;;;0.00;0.00;;;22.40;63.60;;;;;;5103481;28;20351;-81
2022/05/19 07:22:05;;;;;;;0.00;0.00;;;21.50;64.90;;;;;;5104860;28;20043;-82
2022/05/19 07:24:31;;;;;;;0.00;0.00;;;21.10;64.40;;;;;;5107510;28;20019;-81
2022/05/19 07:26:58;;;;;;;0.00;0.00;;;20.80;66.90;;;;;;5102761;28;20099;-79
2022/05/19 07:29:25;;;;;;;0.00;0.00;;;20.60;67.40;;;;;;5112855;28;20023;-80
2022/05/19 07:31:51;;;;;;;0.00;0.00;;;20.50;68.00;;;;;;5105845;28;20299;-80
2022/05/19 07:34:21;;;;;;;0.00;0.00;;;20.50;66.80;;;;;;5106216;28;20023;-79
2022/05/19 07:36:47;;;;;;;0.00;0.00;;;20.40;67.30;;;;;;5107204;28;20585;-77
2022/05/19 07:39:13;;;;;;;0.00;0.00;;;20.30;68.90;;;;;;5112353;28;20085;-78
2022/05/19 07:41:40;;;;;;;0.00;0.00;;;20.20;68.10;;;;;;5109855;28;20331;-78
2022/05/19 07:44:07;;;;;;;0.00;0.00;;;20.20;67.80;;;;;;5109199;28;20255;-80
2022/05/19 07:46:34;;;;;;;0.00;0.00;;;20.30;67.60;;;;;;5109690;28;20015;-80
2022/05/19 07:49:00;;;;;;;0.00;0.00;;;20.30;67.40;;;;;;5106417;28;20050;-80
2022/05/19 07:51:36;;;;;;;0.00;0.00;;;20.30;67.30;;;;;;5102207;28;20057;-83
2022/05/19 07:54:10;;;;;;;0.00;0.00;;;20.30;68.00;;;;;;5103240;28;20027;-83
2022/05/19 07:56:37;;;;;;;0.00;0.00;;;20.30;68.90;;;;;;5114517;28;20020;-82
2022/05/19 07:59:04;;;;;;;0.00;0.00;;;20.30;68.10;;;;;;5103489;28;20028;-78
2022/05/19 08:01:50;;;;;;;0.00;0.00;;;20.40;67.50;;;;;;5100922;28;20108;-74
2022/05/19 08:04:17;;;;;;;0.00;0.00;;;20.40;68.20;;;;;;5101393;28;20042;-73
2022/05/19 08:06:42;;;;;;;0.00;0.00;;;20.40;70.80;;;;;;5103030;28;20091;-74
2022/05/19 08:11:54;;;;;;;0.00;0.00;;;20.40;70.20;;;;;;5096433;28;20081;-74
2022/05/19 08:17:10;;;;;;;0.00;0.00;;;20.70;67.20;;;;;;5104490;28;20023;-74
2022/05/19 08:19:39;;;;;;;0.00;0.00;;;21.00;67.20;;;;;;5099904;28;20023;-74
2022/05/19 08:22:08;;;;;;;0.00;0.00;;;21.20;66.40;;;;;;5101391;28;20035;-74
2022/05/19 08:24:34;;;;;;;0.00;0.00;;;21.90;66.10;;;;;;5104692;28;20043;-75
2022/05/19 08:27:00;;;;;;;0.00;0.00;;;22.60;67.40;;;;;;5102169;28;20081;-75
2022/05/19 08:29:27;;;;;;;0.00;0.00;;;23.60;66.80;;;;;;5101155;28;20303;-74
2022/05/19 08:31:52;;;;;;;0.00;0.00;;;24.80;64.80;;;;;;5099315;28;20297;-73
2022/05/19 08:34:18;;;;;;;0.00;0.00;;;25.80;63.70;;;;;;5096097;28;20651;-78
2022/05/19 08:36:44;;;;;;;0.00;0.00;;;26.60;61.80;;;;;;5074600;28;20510;-77
2022/05/19 08:39:12;;;;;;;0.00;0.00;;;27.40;61.70;;;;;;5071083;28;20095;-78
2022/05/19 08:41:40;;;;;;;0.00;0.00;;;28.00;58.70;;;;;;5074027;28;20373;-76
2022/05/19 08:44:11;;;;;;;0.00;0.00;;;28.50;54.80;;;;;;5087115;27;20523;-78
2022/05/19 08:46:41;;;;;;;0.00;0.00;;;28.80;55.90;;;;;;5072436;28;20066;-77
2022/05/19 08:49:38;;;;;;;0.00;0.00;;;28.80;55.30;;;;;;5073529;28;20373;-79
2022/05/19 08:52:03;;;;;;;;;;;29.10;56.60;;;;;;5076437;28;20049;-79
2022/05/19 08:54:31;;;;;;;0.00;0.00;;;29.20;53.40;;;;;;5072930;28;20014;-79
2022/05/19 08:57:03;;;;;;;0.00;0.00;;;29.50;53.00;;;;;;5072911;28;20361;-78
2022/05/19 08:59:35;;;;;;;0.00;0.00;;;29.50;57.30;;;;;;5074938;28;20027;-79
2022/05/19 09:02:14;;;;;;;0.00;0.00;;;30.40;55.00;;;;;;5073831;28;20043;-77
2022/05/19 09:05:05;;;;;;;0.00;0.00;;;30.60;52.80;;;;;;5070828;28;20028;-77
2022/05/19 09:08:10;;;;;;;0.00;0.00;;;31.20;51.00;;;;;;5073297;28;20057;-79
2022/05/19 09:11:00;;;;;;;0.00;0.00;;;31.40;55.90;;;;;;5074329;28;20131;-79
2022/05/19 09:13:29;;;;;;;0.00;0.00;;;32.30;54.10;;;;;;5075576;28;20027;-77
2022/05/19 09:15:55;;;;;;;0.00;0.00;;;32.20;49.70;;;;;;5075277;28;20277;-76
2022/05/19 09:18:37;;;;;;;0.00;0.00;;;31.70;49.70;;;;;;5074595;28;20418;-77
2022/05/19 09:21:05;;;;;;;0.00;0.00;;;32.10;48.10;;;;;;5072976;28;20943;-78
2022/05/19 09:23:35;;;;;;;0.00;0.00;;;32.00;46.60;;;;;;5072569;28;20036;-77
2022/05/19 09:26:34;;;;;;;0.00;0.00;;;31.80;48.10;;;;;;5073152;28;20020;-77
2022/05/19 09:29:35;;;;;;;0.00;0.00;;;31.40;49.60;;;;;;5033886;28;20028;-77
2022/05/19 09:32:07;;;;;;;0.00;0.00;;;32.10;51.10;;;;;;5069628;28;20067;-77
2022/05/19 09:34:35;;;;;;;0.00;0.00;;;33.20;50.10;;;;;;5071105;28;20054;-76
2022/05/19 09:37:16;;;;;;;0.00;0.00;;;33.80;51.80;;;;;;5072933;28;20065;-77
2022/05/19 09:39:59;;;;;;;0.00;0.00;;;34.30;49.30;;;;;;5071997;28;20326;-75
2022/05/19 09:42:48;;;;;;;0.00;0.00;;;34.30;46.20;;;;;;5070480;28;20047;-75
2022/05/19 09:45:14;;;;;;;0.00;0.00;;;34.60;47.30;;;;;;5071028;28;20150;-78
2022/05/19 09:47:43;;;;;;;0.00;0.00;;;34.70;45.10;;;;;;5071541;28;20032;-78
2022/05/19 09:50:20;;;;;;;0.00;0.00;;;34.80;45.10;;;;;;5075761;28;20102;-71
2022/05/19 09:52:46;;;;;;;0.00;0.00;;;34.60;44.40;;;;;;5070416;28;20628;-78
2022/05/19 09:55:15;;;;;;;0.00;0.00;;;34.70;52.10;;;;;;5071612;28;20032;-79
2022/05/19 09:57:49;;;;;;;0.00;0.00;;;35.40;47.10;;;;;;5073489;28;20027;-76
2022/05/19 10:00:51;;;;;;;0.00;0.00;;;35.60;45.70;;;;;;5075971;28;20030;-75
2022/05/19 10:03:37;;;;;;;0.00;0.00;;;36.30;48.00;;;;;;5065038;28;20434;-72
2022/05/19 10:06:07;;;;;;;;;;;36.20;46.70;;;;;;5077060;28;20080;-72
2022/05/19 10:08:39;;;;;;;0.00;0.00;;;36.30;45.60;;;;;;5074534;28;19912;-73
2022/05/19 10:11:14;;;;;;;0.00;0.00;;;36.10;44.70;;;;;;5074169;28;20038;-72
2022/05/19 10:13:45;;;;;;;0.00;0.00;;;35.40;45.70;;;;;;5073809;28;20020;-72
2022/05/19 10:16:47;;;;;;;0.00;0.00;;;35.40;42.30;;;;;;5073775;28;20024;-71
2022/05/19 10:19:36;;;;;;;0.00;0.00;;;35.50;46.70;;;;;;5074956;28;20206;-70
2022/05/19 10:22:39;;;;;;;0.00;0.00;;;34.80;41.80;;;;;;5073351;28;21082;-71
2022/05/19 10:25:04;;;;;;;0.00;0.00;;;33.90;46.40;;;;;;5074232;28;20968;-71
2022/05/19 10:31:05;;;;;;;0.00;0.00;;;34.60;46.50;;;;;;5073523;28;20038;-70
2022/05/19 10:33:40;;;;;;;0.00;0.00;;;35.50;44.20;;;;;;5072355;28;20068;-70
2022/05/19 10:36:28;;;;;;;0.00;0.00;;;35.90;46.60;;;;;;5074192;28;20139;-71
2022/05/19 10:39:26;;;;;;;0.00;0.00;;;36.40;44.20;;;;;;5073690;28;20112;-71
2022/05/19 10:42:20;;;;;;;0.00;0.00;;;37.30;47.20;;;;;;5073868;28;20047;-71
2022/05/19 10:45:07;;;;;;;0.00;0.00;;;38.30;47.60;;;;;;5074850;28;20031;-72
2022/05/19 10:48:04;;;;;;;0.00;0.00;;;38.60;38.90;;;;;;5077021;28;20071;-73
2022/05/19 10:50:59;;;;;;;0.00;0.00;;;37.80;37.20;;;;;;5076508;28;20378;-72
2022/05/19 10:53:46;;;;;;;0.00;0.00;;;34.70;40.00;;;;;;5082289;28;20078;-72
2022/05/19 10:56:25;;;;;;;0.00;0.00;;;34.00;41.50;;;;;;5076722;28;20031;-72
2022/05/19 10:59:21;;;;;;;0.00;0.00;;;34.90;40.70;;;;;;5077410;28;20027;-73
2022/05/19 11:02:24;;;;;;;0.00;0.00;;;34.80;38.50;;;;;;5076712;28;20046;-73
2022/05/19 11:04:59;;;;;;;0.00;0.00;;;35.20;39.10;;;;;;5077623;28;20031;-75
2022/05/19 11:07:58;;;;;;;0.00;0.00;;;33.70;38.20;;;;;;5076628;28;20028;-72
2022/05/19 11:10:42;;;;;;;0.00;0.00;;;33.10;38.50;;;;;;5079902;28;20105;-74
2022/05/19 11:13:17;;;;;;;0.00;0.00;;;32.40;40.50;;;;;;5077101;28;20065;-74
2022/05/19 11:16:20;;;;;;;0.00;0.00;;;31.50;41.40;;;;;;5075159;28;20468;-73
2022/05/19 11:19:02;;;;;;;0.00;0.00;;;31.10;42.70;;;;;;5072520;28;20036;-74
2022/05/19 11:21:41;;;;;;;0.00;0.00;;;32.40;46.70;;;;;;5074229;28;20821;-72
2022/05/19 11:24:24;;;;;;;0.00;0.00;;;32.80;39.00;;;;;;5077904;28;20088;-72
2022/05/19 11:26:57;;;;;;;0.00;0.00;;;33.10;39.50;;;;;;5075466;28;20081;-73
2022/05/19 11:29:32;;;;;;;0.00;0.00;;;32.60;38.80;;;;;;5077939;28;20303;-74
2022/05/19 11:32:06;;;;;;;0.00;0.00;;;32.30;40.00;;;;;;5076966;28;20063;-75
2022/05/19 11:35:12;;;;;;;0.00;0.00;;;32.40;41.70;;;;;;5080997;28;20024;-77
2022/05/19 11:38:01;;;;;;;0.00;0.00;;;32.40;39.40;;;;;;5077637;28;20152;-75
2022/05/19 11:41:08;;;;;;;0.00;0.00;;;30.60;40.40;;;;;;5077049;28;20035;-71
2022/05/19 11:43:57;;;;;;;0.00;0.00;;;28.90;42.70;;;;;;5077047;28;20742;-72
2022/05/19 11:46:30;;;;;;;0.00;0.00;;;28.70;43.30;;;;;;5092118;27;20024;-72
2022/05/19 11:55:19;;;;;;;0.00;0.00;;;27.60;45.20;;;;;;5077349;28;20656;-75
2022/05/19 11:57:48;;;;;;;0.00;0.00;;;27.20;44.00;;;;;;5074596;28;20038;-75
2022/05/19 12:00:21;;;;;;;0.00;0.00;;;26.70;44.50;;;;;;5079267;28;20402;-74
2022/05/19 12:03:05;;;;;;;0.00;0.00;;;26.40;44.70;;;;;;5074465;28;20035;-74
2022/05/19 12:05:36;;;;;;;0.00;0.00;;;26.30;47.10;;;;;;5077361;28;20123;-74
2022/05/19 12:08:18;;;;;;;0.00;0.00;;;26.20;45.30;;;;;;5076256;28;20042;-74
2022/05/19 12:10:49;;;;;;;0.00;0.00;;;26.10;44.90;;;;;;5077720;28;20032;-73
2022/05/19 12:13:19;;;;;;;0.00;0.00;;;25.90;45.00;;;;;;5077730;28;20570;-72
2022/05/19 12:15:56;;;;;;;0.00;0.00;;;25.80;45.70;;;;;;5076966;28;20105;-75
2022/05/19 12:18:24;;;;;;;0.00;0.00;;;25.60;45.00;;;;;;5079839;28;20027;-74
2022/05/19 12:20:52;;;;;;;0.00;0.00;;;25.60;45.60;;;;;;5075748;28;20040;-75
2022/05/19 12:23:17;;;;;;;0.00;0.00;;;25.60;44.80;;;;;;5075736;28;20016;-75
2022/05/19 12:25:46;;;;;;;0.00;0.00;;;25.70;44.70;;;;;;5076057;28;20136;-74
2022/05/19 12:28:18;;;;;;;0.00;0.00;;;25.70;45.30;;;;;;5078503;28;20023;-72
2022/05/19 12:33:57;;;;;;;0.00;0.00;;;25.40;46.60;;;;;;5074660;28;20091;-71
2022/05/19 12:36:31;;;;;;;0.00;0.00;;;25.40;46.50;;;;;;5074659;28;20428;-73
2022/05/19 12:39:39;;;;;;;0.00;0.00;;;25.40;47.40;;;;;;5075731;28;20105;-72
2022/05/19 12:42:32;;;;;;;0.00;0.00;;;25.40;46.00;;;;;;5066327;28;20048;-72
2022/05/19 12:44:59;;;;;;;0.00;0.00;;;25.40;46.30;;;;;;5076154;28;20039;-72
2022/05/19 12:47:31;;;;;;;0.00;0.00;;;25.30;47.30;;;;;;5074877;28;20032;-72
2022/05/19 12:50:08;;;;;;;0.00;0.00;;;25.30;46.30;;;;;;5078492;28;20322;-72
2022/05/19 12:52:56;;;;;;;0.00;0.00;;;25.40;48.50;;;;;;5077108;28;20281;-71
2022/05/19 12:55:24;;;;;;;0.00;0.00;;;25.40;46.00;;;;;;5077010;28;20816;-72
2022/05/19 12:57:58;;;;;;;0.00;0.00;;;25.50;45.40;;;;;;5074952;28;20404;-74
2022/05/19 13:00:35;;;;;;;0.00;0.00;;;25.40;45.50;;;;;;5077145;28;20321;-74
2022/05/19 13:03:14;;;;;;;0.00;0.00;;;25.50;45.30;;;;;;5074396;28;20032;-74
2022/05/19 13:05:57;;;;;;;0.00;0.00;;;25.60;44.80;;;;;;5077142;28;20051;-74
2022/05/19 13:08:54;;;;;;;0.00;0.00;;;25.60;46.00;;;;;;5074826;28;20046;-73
2022/05/19 13:11:31;;;;;;;0.00;0.00;;;25.40;44.80;;;;;;5061470;28;20503;-75
2022/05/19 13:14:04;;;;;;;0.00;0.00;;;25.50;44.80;;;;;;5075532;28;20768;-74
2022/05/19 13:16:37;;;;;;;0.00;0.00;;;25.50;45.40;;;;;;5076542;28;20329;-75
2022/05/19 13:19:15;;;;;;;0.00;0.00;;;25.50;47.30;;;;;;5078501;28;20139;-75
2022/05/19 13:22:02;;;;;;;0.00;0.00;;;25.50;44.90;;;;;;5078958;28;20035;-74
2022/05/19 13:24:29;;;;;;;;;;;25.60;44.00;;;;;;5077397;28;20076;-75
2022/05/19 13:32:34;;;;;;;0.00;0.00;;;25.60;44.30;;;;;;5075582;28;20043;-74
2022/05/19 13:35:05;;;;;;;0.00;0.00;;;25.60;44.00;;;;;;5075902;28;20066;-75
2022/05/19 13:37:39;;;;;;;0.00;0.00;;;25.60;43.80;;;;;;5075127;28;20085;-74
2022/05/19 13:40:16;;;;;;;0.00;0.00;;;25.70;43.80;;;;;;5074992;28;20081;-74
2022/05/19 13:42:52;;;;;;;0.00;0.00;;;25.70;45.90;;;;;;5074083;28;20230;-73